sensor_id;sensor_type;location;lat;lon;timestamp;P1;durP1;ratioP1;P2;durP2;ratioP2
11805;SDS011;5960;42.602;23.482;2022-10-31T00:01:18;2.95;;;2.10;;
11805;SDS011;5960;42.602;23.482;2022-10-31T00:03:46;3.97;;;2.58;;
11805;SDS011;5960;42.602;23.482;2022-10-31T00:06:13;3.53;;;2.50;;
11805;SDS011;5960;42.602;23.482;2022-10-31T00:08:43;6.05;;;2.40;;
11805;SDS011;5960;42.602;23.482;2022-10-31T00:11:10;4.15;;;2.47;;
11805;SDS011;5960;42.602;23.482;2022-10-31T00:13:37;3.05;;;2.47;;
11805;SDS011;5960;42.602;23.482;2022-10-31T00:16:06;5.25;;;2.67;;
11805;SDS011;5960;42.602;23.482;2022-10-31T00:18:39;3.85;;;2.40;;
11805;SDS011;5960;42.602;23.482;2022-10-31T00:21:06;2.85;;;2.00;;
11805;SDS011;5960;42.602;23.482;2022-10-31T00:23:33;3.72;;;2.55;;
11805;SDS011;5960;42.602;23.482;2022-10-31T00:26:00;4.35;;;2.30;;
11805;SDS011;5960;42.602;23.482;2022-10-31T00:28:27;4.35;;;2.30;;
11805;SDS011;5960;42.602;23.482;2022-10-31T00:30:57;3.22;;;2.30;;
11805;SDS011;5960;42.602;23.482;2022-10-31T00:33:26;3.15;;;2.58;;
11805;SDS011;5960;42.602;23.482;2022-10-31T00:35:53;4.40;;;2.72;;
11805;SDS011;5960;42.602;23.482;2022-10-31T00:38:20;4.80;;;2.47;;
11805;SDS011;5960;42.602;23.482;2022-10-31T00:40:47;6.18;;;2.38;;
11805;SDS011;5960;42.602;23.482;2022-10-31T00:43:14;4.47;;;2.40;;
11805;SDS011;5960;42.602;23.482;2022-10-31T00:45:41;4.85;;;2.70;;
11805;SDS011;5960;42.602;23.482;2022-10-31T00:48:08;3.53;;;2.17;;
11805;SDS011;5960;42.602;23.482;2022-10-31T00:50:36;5.85;;;2.28;;
11805;SDS011;5960;42.602;23.482;2022-10-31T00:53:03;2.90;;;2.17;;
11805;SDS011;5960;42.602;23.482;2022-10-31T00:55:30;3.05;;;2.20;;
11805;SDS011;5960;42.602;23.482;2022-10-31T00:57:57;3.83;;;2.50;;
11805;SDS011;5960;42.602;23.482;2022-10-31T01:00:24;3.75;;;2.30;;
11805;SDS011;5960;42.602;23.482;2022-10-31T01:02:51;4.60;;;2.25;;
11805;SDS011;5960;42.602;23.482;2022-10-31T01:05:18;4.10;;;2.50;;
11805;SDS011;5960;42.602;23.482;2022-10-31T01:07:46;3.13;;;2.17;;
11805;SDS011;5960;42.602;23.482;2022-10-31T01:10:13;4.60;;;2.55;;
11805;SDS011;5960;42.602;23.482;2022-10-31T01:12:40;4.25;;;2.50;;
11805;SDS011;5960;42.602;23.482;2022-10-31T01:15:09;6.00;;;2.65;;
11805;SDS011;5960;42.602;23.482;2022-10-31T01:17:37;3.22;;;2.20;;
11805;SDS011;5960;42.602;23.482;2022-10-31T01:20:04;5.30;;;2.50;;
11805;SDS011;5960;42.602;23.482;2022-10-31T01:22:33;4.38;;;2.58;;
11805;SDS011;5960;42.602;23.482;2022-10-31T01:25:01;6.20;;;2.15;;
11805;SDS011;5960;42.602;23.482;2022-10-31T01:27:29;2.78;;;2.45;;
11805;SDS011;5960;42.602;23.482;2022-10-31T01:29:56;3.13;;;2.10;;
11805;SDS011;5960;42.602;23.482;2022-10-31T01:32:23;4.70;;;2.65;;
11805;SDS011;5960;42.602;23.482;2022-10-31T01:34:50;3.90;;;2.22;;
11805;SDS011;5960;42.602;23.482;2022-10-31T01:37:17;3.70;;;2.20;;
11805;SDS011;5960;42.602;23.482;2022-10-31T01:39:44;5.45;;;2.40;;
11805;SDS011;5960;42.602;23.482;2022-10-31T01:42:12;3.58;;;2.33;;
11805;SDS011;5960;42.602;23.482;2022-10-31T01:44:52;3.92;;;2.63;;
11805;SDS011;5960;42.602;23.482;2022-10-31T01:47:31;6.03;;;2.63;;
11805;SDS011;5960;42.602;23.482;2022-10-31T01:50:02;5.25;;;2.47;;
11805;SDS011;5960;42.602;23.482;2022-10-31T01:52:33;3.33;;;2.30;;
11805;SDS011;5960;42.602;23.482;2022-10-31T01:55:05;4.35;;;2.20;;
11805;SDS011;5960;42.602;23.482;2022-10-31T01:57:35;4.75;;;2.45;;
11805;SDS011;5960;42.602;23.482;2022-10-31T02:00:07;4.40;;;2.55;;
11805;SDS011;5960;42.602;23.482;2022-10-31T02:02:35;5.43;;;2.70;;
11805;SDS011;5960;42.602;23.482;2022-10-31T02:05:02;3.38;;;2.28;;
11805;SDS011;5960;42.602;23.482;2022-10-31T02:07:33;3.88;;;2.30;;
11805;SDS011;5960;42.602;23.482;2022-10-31T02:10:06;5.22;;;2.83;;
11805;SDS011;5960;42.602;23.482;2022-10-31T02:12:34;5.43;;;2.55;;
11805;SDS011;5960;42.602;23.482;2022-10-31T02:15:03;3.03;;;2.40;;
11805;SDS011;5960;42.602;23.482;2022-10-31T02:17:30;5.43;;;2.60;;
11805;SDS011;5960;42.602;23.482;2022-10-31T02:20:00;4.50;;;2.80;;
11805;SDS011;5960;42.602;23.482;2022-10-31T02:22:38;3.38;;;2.22;;
11805;SDS011;5960;42.602;23.482;2022-10-31T02:25:20;5.20;;;3.28;;
11805;SDS011;5960;42.602;23.482;2022-10-31T02:28:17;3.80;;;2.85;;
11805;SDS011;5960;42.602;23.482;2022-10-31T02:31:01;3.50;;;2.75;;
11805;SDS011;5960;42.602;23.482;2022-10-31T02:33:43;5.57;;;2.97;;
11805;SDS011;5960;42.602;23.482;2022-10-31T02:36:16;5.63;;;3.20;;
11805;SDS011;5960;42.602;23.482;2022-10-31T02:38:50;5.38;;;3.08;;
11805;SDS011;5960;42.602;23.482;2022-10-31T02:41:23;3.28;;;2.53;;
11805;SDS011;5960;42.602;23.482;2022-10-31T02:44:00;4.97;;;2.85;;
11805;SDS011;5960;42.602;23.482;2022-10-31T02:46:35;5.55;;;2.78;;
11805;SDS011;5960;42.602;23.482;2022-10-31T02:49:10;3.63;;;2.22;;
11805;SDS011;5960;42.602;23.482;2022-10-31T02:51:44;4.47;;;2.90;;
11805;SDS011;5960;42.602;23.482;2022-10-31T02:54:17;5.53;;;3.28;;
11805;SDS011;5960;42.602;23.482;2022-10-31T02:56:46;8.38;;;3.10;;
11805;SDS011;5960;42.602;23.482;2022-10-31T02:59:13;5.90;;;3.30;;
11805;SDS011;5960;42.602;23.482;2022-10-31T03:01:45;4.97;;;3.35;;
11805;SDS011;5960;42.602;23.482;2022-10-31T03:07:19;5.30;;;2.67;;
11805;SDS011;5960;42.602;23.482;2022-10-31T03:09:52;6.72;;;3.00;;
11805;SDS011;5960;42.602;23.482;2022-10-31T03:12:29;7.03;;;3.97;;
11805;SDS011;5960;42.602;23.482;2022-10-31T03:15:05;4.60;;;3.00;;
11805;SDS011;5960;42.602;23.482;2022-10-31T03:17:44;6.97;;;3.53;;
11805;SDS011;5960;42.602;23.482;2022-10-31T03:20:19;6.00;;;2.63;;
11805;SDS011;5960;42.602;23.482;2022-10-31T03:22:50;5.68;;;3.08;;
11805;SDS011;5960;42.602;23.482;2022-10-31T03:25:19;4.18;;;2.90;;
11805;SDS011;5960;42.602;23.482;2022-10-31T03:27:45;3.97;;;2.60;;
11805;SDS011;5960;42.602;23.482;2022-10-31T03:30:13;4.88;;;2.80;;
11805;SDS011;5960;42.602;23.482;2022-10-31T03:32:44;6.57;;;3.28;;
11805;SDS011;5960;42.602;23.482;2022-10-31T03:35:15;4.55;;;2.83;;
11805;SDS011;5960;42.602;23.482;2022-10-31T03:37:45;4.30;;;2.97;;
11805;SDS011;5960;42.602;23.482;2022-10-31T03:40:14;4.70;;;3.22;;
11805;SDS011;5960;42.602;23.482;2022-10-31T03:42:43;5.43;;;2.72;;
11805;SDS011;5960;42.602;23.482;2022-10-31T03:45:17;4.80;;;2.75;;
11805;SDS011;5960;42.602;23.482;2022-10-31T03:47:50;4.82;;;2.63;;
11805;SDS011;5960;42.602;23.482;2022-10-31T03:50:17;4.18;;;2.55;;
11805;SDS011;5960;42.602;23.482;2022-10-31T03:52:46;4.32;;;2.72;;
11805;SDS011;5960;42.602;23.482;2022-10-31T03:55:18;5.45;;;3.13;;
11805;SDS011;5960;42.602;23.482;2022-10-31T03:57:51;8.38;;;3.33;;
11805;SDS011;5960;42.602;23.482;2022-10-31T04:00:23;6.10;;;2.90;;
11805;SDS011;5960;42.602;23.482;2022-10-31T04:02:53;4.15;;;3.33;;
11805;SDS011;5960;42.602;23.482;2022-10-31T04:05:23;4.93;;;2.95;;
11805;SDS011;5960;42.602;23.482;2022-10-31T04:07:51;5.50;;;3.55;;
11805;SDS011;5960;42.602;23.482;2022-10-31T04:10:20;5.55;;;3.22;;
11805;SDS011;5960;42.602;23.482;2022-10-31T04:12:50;6.45;;;3.30;;
11805;SDS011;5960;42.602;23.482;2022-10-31T04:15:22;4.43;;;3.22;;
11805;SDS011;5960;42.602;23.482;2022-10-31T04:17:53;4.95;;;3.08;;
11805;SDS011;5960;42.602;23.482;2022-10-31T04:20:29;5.05;;;3.17;;
11805;SDS011;5960;42.602;23.482;2022-10-31T04:22:56;4.78;;;3.20;;
11805;SDS011;5960;42.602;23.482;2022-10-31T04:25:23;6.57;;;3.25;;
11805;SDS011;5960;42.602;23.482;2022-10-31T04:27:50;5.30;;;3.47;;
11805;SDS011;5960;42.602;23.482;2022-10-31T04:30:17;5.43;;;3.47;;
11805;SDS011;5960;42.602;23.482;2022-10-31T04:32:43;5.53;;;3.40;;
11805;SDS011;5960;42.602;23.482;2022-10-31T04:35:11;9.13;;;3.45;;
11805;SDS011;5960;42.602;23.482;2022-10-31T04:37:38;10.40;;;3.58;;
11805;SDS011;5960;42.602;23.482;2022-10-31T04:40:05;6.05;;;3.80;;
11805;SDS011;5960;42.602;23.482;2022-10-31T04:42:33;9.75;;;4.28;;
11805;SDS011;5960;42.602;23.482;2022-10-31T04:44:59;8.75;;;4.07;;
11805;SDS011;5960;42.602;23.482;2022-10-31T04:47:26;8.27;;;4.07;;
11805;SDS011;5960;42.602;23.482;2022-10-31T04:49:53;4.93;;;3.97;;
11805;SDS011;5960;42.602;23.482;2022-10-31T04:52:21;5.57;;;3.70;;
11805;SDS011;5960;42.602;23.482;2022-10-31T04:54:48;4.88;;;3.40;;
11805;SDS011;5960;42.602;23.482;2022-10-31T04:57:14;8.50;;;3.30;;
11805;SDS011;5960;42.602;23.482;2022-10-31T04:59:41;7.20;;;3.60;;
11805;SDS011;5960;42.602;23.482;2022-10-31T05:02:08;8.45;;;3.92;;
11805;SDS011;5960;42.602;23.482;2022-10-31T05:04:34;7.50;;;4.30;;
11805;SDS011;5960;42.602;23.482;2022-10-31T05:07:01;6.20;;;4.00;;
11805;SDS011;5960;42.602;23.482;2022-10-31T05:09:29;11.68;;;7.03;;
11805;SDS011;5960;42.602;23.482;2022-10-31T05:11:56;31.33;;;20.55;;
11805;SDS011;5960;42.602;23.482;2022-10-31T05:14:23;20.20;;;12.20;;
11805;SDS011;5960;42.602;23.482;2022-10-31T05:16:49;14.55;;;10.32;;
11805;SDS011;5960;42.602;23.482;2022-10-31T05:19:16;14.60;;;10.13;;
11805;SDS011;5960;42.602;23.482;2022-10-31T05:21:43;10.52;;;6.47;;
11805;SDS011;5960;42.602;23.482;2022-10-31T05:24:09;7.50;;;5.72;;
11805;SDS011;5960;42.602;23.482;2022-10-31T05:26:38;13.25;;;6.80;;
11805;SDS011;5960;42.602;23.482;2022-10-31T05:29:04;15.10;;;6.45;;
11805;SDS011;5960;42.602;23.482;2022-10-31T05:31:31;12.98;;;5.40;;
11805;SDS011;5960;42.602;23.482;2022-10-31T05:33:58;15.93;;;8.15;;
11805;SDS011;5960;42.602;23.482;2022-10-31T05:36:25;20.63;;;10.25;;
11805;SDS011;5960;42.602;23.482;2022-10-31T05:38:52;27.25;;;10.40;;
11805;SDS011;5960;42.602;23.482;2022-10-31T05:41:18;23.33;;;10.15;;
11805;SDS011;5960;42.602;23.482;2022-10-31T05:43:46;10.90;;;6.40;;
11805;SDS011;5960;42.602;23.482;2022-10-31T05:46:13;10.52;;;5.60;;
11805;SDS011;5960;42.602;23.482;2022-10-31T05:48:40;18.48;;;7.45;;
11805;SDS011;5960;42.602;23.482;2022-10-31T05:51:06;12.07;;;6.13;;
11805;SDS011;5960;42.602;23.482;2022-10-31T05:53:33;11.13;;;6.55;;
11805;SDS011;5960;42.602;23.482;2022-10-31T05:56:00;10.98;;;4.97;;
11805;SDS011;5960;42.602;23.482;2022-10-31T05:58:27;10.25;;;5.65;;
11805;SDS011;5960;42.602;23.482;2022-10-31T06:00:55;12.48;;;6.95;;
11805;SDS011;5960;42.602;23.482;2022-10-31T06:03:21;11.35;;;6.68;;
11805;SDS011;5960;42.602;23.482;2022-10-31T06:05:48;15.13;;;6.47;;
11805;SDS011;5960;42.602;23.482;2022-10-31T06:08:15;14.80;;;7.00;;
11805;SDS011;5960;42.602;23.482;2022-10-31T06:10:41;12.98;;;7.53;;
11805;SDS011;5960;42.602;23.482;2022-10-31T06:13:08;13.60;;;7.28;;
11805;SDS011;5960;42.602;23.482;2022-10-31T06:15:35;17.77;;;7.82;;
11805;SDS011;5960;42.602;23.482;2022-10-31T06:18:04;9.82;;;6.03;;
11805;SDS011;5960;42.602;23.482;2022-10-31T06:20:31;9.77;;;5.78;;
11805;SDS011;5960;42.602;23.482;2022-10-31T06:22:58;22.48;;;11.95;;
11805;SDS011;5960;42.602;23.482;2022-10-31T06:25:25;13.15;;;6.88;;
11805;SDS011;5960;42.602;23.482;2022-10-31T06:27:52;13.30;;;7.75;;
11805;SDS011;5960;42.602;23.482;2022-10-31T06:30:19;13.10;;;8.38;;
11805;SDS011;5960;42.602;23.482;2022-10-31T06:32:46;20.88;;;9.38;;
11805;SDS011;5960;42.602;23.482;2022-10-31T06:35:15;16.48;;;7.85;;
11805;SDS011;5960;42.602;23.482;2022-10-31T06:37:42;16.75;;;7.50;;
11805;SDS011;5960;42.602;23.482;2022-10-31T06:40:09;15.68;;;8.10;;
11805;SDS011;5960;42.602;23.482;2022-10-31T06:42:37;16.13;;;7.95;;
11805;SDS011;5960;42.602;23.482;2022-10-31T06:45:04;18.33;;;8.70;;
11805;SDS011;5960;42.602;23.482;2022-10-31T06:47:31;18.13;;;9.10;;
11805;SDS011;5960;42.602;23.482;2022-10-31T06:49:57;11.63;;;6.03;;
11805;SDS011;5960;42.602;23.482;2022-10-31T06:52:26;8.65;;;5.55;;
11805;SDS011;5960;42.602;23.482;2022-10-31T06:54:52;6.63;;;4.55;;
11805;SDS011;5960;42.602;23.482;2022-10-31T06:57:19;8.05;;;4.93;;
11805;SDS011;5960;42.602;23.482;2022-10-31T06:59:46;7.20;;;4.57;;
11805;SDS011;5960;42.602;23.482;2022-10-31T07:02:12;8.40;;;5.30;;
11805;SDS011;5960;42.602;23.482;2022-10-31T07:04:39;7.63;;;4.78;;
11805;SDS011;5960;42.602;23.482;2022-10-31T07:07:06;9.75;;;4.88;;
11805;SDS011;5960;42.602;23.482;2022-10-31T07:09:34;5.93;;;4.28;;
11805;SDS011;5960;42.602;23.482;2022-10-31T07:12:01;8.70;;;5.00;;
11805;SDS011;5960;42.602;23.482;2022-10-31T07:14:27;7.15;;;4.97;;
11805;SDS011;5960;42.602;23.482;2022-10-31T07:16:54;7.82;;;4.50;;
11805;SDS011;5960;42.602;23.482;2022-10-31T07:19:21;5.97;;;4.35;;
11805;SDS011;5960;42.602;23.482;2022-10-31T07:21:47;8.38;;;5.38;;
11805;SDS011;5960;42.602;23.482;2022-10-31T07:24:14;8.48;;;5.30;;
11805;SDS011;5960;42.602;23.482;2022-10-31T07:26:42;8.30;;;4.90;;
11805;SDS011;5960;42.602;23.482;2022-10-31T07:29:10;6.47;;;4.82;;
11805;SDS011;5960;42.602;23.482;2022-10-31T07:31:37;9.60;;;5.10;;
11805;SDS011;5960;42.602;23.482;2022-10-31T07:34:04;7.22;;;4.75;;
11805;SDS011;5960;42.602;23.482;2022-10-31T07:36:31;8.35;;;5.03;;
11805;SDS011;5960;42.602;23.482;2022-10-31T07:38:58;9.63;;;5.35;;
11805;SDS011;5960;42.602;23.482;2022-10-31T07:41:25;9.02;;;5.60;;
11805;SDS011;5960;42.602;23.482;2022-10-31T07:43:53;11.75;;;5.78;;
11805;SDS011;5960;42.602;23.482;2022-10-31T07:46:21;6.88;;;5.05;;
11805;SDS011;5960;42.602;23.482;2022-10-31T07:48:48;6.80;;;5.10;;
11805;SDS011;5960;42.602;23.482;2022-10-31T07:51:14;10.77;;;5.10;;
11805;SDS011;5960;42.602;23.482;2022-10-31T07:53:41;11.15;;;4.97;;
11805;SDS011;5960;42.602;23.482;2022-10-31T07:56:08;6.72;;;4.88;;
11805;SDS011;5960;42.602;23.482;2022-10-31T07:58:34;7.80;;;4.30;;
11805;SDS011;5960;42.602;23.482;2022-10-31T08:01:03;6.57;;;4.53;;
11805;SDS011;5960;42.602;23.482;2022-10-31T08:03:29;7.85;;;5.20;;
11805;SDS011;5960;42.602;23.482;2022-10-31T08:05:56;8.65;;;5.00;;
11805;SDS011;5960;42.602;23.482;2022-10-31T08:08:23;9.02;;;5.20;;
11805;SDS011;5960;42.602;23.482;2022-10-31T08:10:53;8.80;;;5.40;;
11805;SDS011;5960;42.602;23.482;2022-10-31T08:13:19;8.93;;;5.30;;
11805;SDS011;5960;42.602;23.482;2022-10-31T08:15:46;6.28;;;4.57;;
11805;SDS011;5960;42.602;23.482;2022-10-31T08:18:16;8.38;;;4.70;;
11805;SDS011;5960;42.602;23.482;2022-10-31T08:20:43;7.10;;;4.60;;
11805;SDS011;5960;42.602;23.482;2022-10-31T08:23:11;9.45;;;5.40;;
11805;SDS011;5960;42.602;23.482;2022-10-31T08:25:38;8.88;;;4.78;;
11805;SDS011;5960;42.602;23.482;2022-10-31T08:28:06;7.32;;;4.93;;
11805;SDS011;5960;42.602;23.482;2022-10-31T08:30:35;8.65;;;4.88;;
11805;SDS011;5960;42.602;23.482;2022-10-31T08:33:03;8.05;;;4.80;;
11805;SDS011;5960;42.602;23.482;2022-10-31T08:35:33;7.68;;;5.18;;
11805;SDS011;5960;42.602;23.482;2022-10-31T08:37:59;7.88;;;5.47;;
11805;SDS011;5960;42.602;23.482;2022-10-31T08:40:27;12.57;;;5.88;;
11805;SDS011;5960;42.602;23.482;2022-10-31T08:42:56;10.13;;;5.25;;
11805;SDS011;5960;42.602;23.482;2022-10-31T08:45:24;9.75;;;5.55;;
11805;SDS011;5960;42.602;23.482;2022-10-31T08:47:50;9.52;;;6.25;;
11805;SDS011;5960;42.602;23.482;2022-10-31T08:50:17;7.28;;;4.97;;
11805;SDS011;5960;42.602;23.482;2022-10-31T08:52:45;8.98;;;4.82;;
11805;SDS011;5960;42.602;23.482;2022-10-31T08:55:12;6.85;;;5.00;;
11805;SDS011;5960;42.602;23.482;2022-10-31T08:57:39;8.23;;;4.40;;
11805;SDS011;5960;42.602;23.482;2022-10-31T09:00:06;7.40;;;4.20;;
11805;SDS011;5960;42.602;23.482;2022-10-31T09:02:34;7.18;;;4.72;;
11805;SDS011;5960;42.602;23.482;2022-10-31T09:05:02;6.45;;;4.47;;
11805;SDS011;5960;42.602;23.482;2022-10-31T09:07:29;7.28;;;4.60;;
11805;SDS011;5960;42.602;23.482;2022-10-31T09:09:57;7.18;;;4.30;;
11805;SDS011;5960;42.602;23.482;2022-10-31T09:12:24;6.88;;;4.50;;
11805;SDS011;5960;42.602;23.482;2022-10-31T09:14:50;7.25;;;4.60;;
11805;SDS011;5960;42.602;23.482;2022-10-31T09:17:17;7.70;;;4.88;;
11805;SDS011;5960;42.602;23.482;2022-10-31T09:19:44;13.73;;;5.15;;
11805;SDS011;5960;42.602;23.482;2022-10-31T09:22:10;5.40;;;4.38;;
11805;SDS011;5960;42.602;23.482;2022-10-31T09:24:37;7.55;;;4.53;;
11805;SDS011;5960;42.602;23.482;2022-10-31T09:27:05;11.32;;;5.30;;
11805;SDS011;5960;42.602;23.482;2022-10-31T09:29:33;9.43;;;4.88;;
11805;SDS011;5960;42.602;23.482;2022-10-31T09:32:00;6.32;;;4.75;;
11805;SDS011;5960;42.602;23.482;2022-10-31T09:34:26;8.68;;;5.45;;
11805;SDS011;5960;42.602;23.482;2022-10-31T09:36:53;7.93;;;4.70;;
11805;SDS011;5960;42.602;23.482;2022-10-31T09:39:20;8.82;;;4.95;;
11805;SDS011;5960;42.602;23.482;2022-10-31T09:41:54;7.65;;;4.32;;
11805;SDS011;5960;42.602;23.482;2022-10-31T09:44:33;5.90;;;4.97;;
11805;SDS011;5960;42.602;23.482;2022-10-31T09:47:11;9.98;;;4.80;;
11805;SDS011;5960;42.602;23.482;2022-10-31T09:49:51;7.22;;;4.68;;
11805;SDS011;5960;42.602;23.482;2022-10-31T09:52:26;8.95;;;4.57;;
11805;SDS011;5960;42.602;23.482;2022-10-31T09:54:58;5.57;;;4.40;;
11805;SDS011;5960;42.602;23.482;2022-10-31T09:57:29;7.80;;;4.85;;
11805;SDS011;5960;42.602;23.482;2022-10-31T10:00:01;9.18;;;4.40;;
11805;SDS011;5960;42.602;23.482;2022-10-31T10:02:30;10.75;;;5.50;;
11805;SDS011;5960;42.602;23.482;2022-10-31T10:05:04;8.30;;;4.32;;
11805;SDS011;5960;42.602;23.482;2022-10-31T10:07:39;13.32;;;5.63;;
11805;SDS011;5960;42.602;23.482;2022-10-31T10:10:14;8.63;;;4.05;;
11805;SDS011;5960;42.602;23.482;2022-10-31T10:12:48;5.30;;;4.20;;
11805;SDS011;5960;42.602;23.482;2022-10-31T10:15:39;6.97;;;4.80;;
11805;SDS011;5960;42.602;23.482;2022-10-31T10:18:22;8.27;;;5.22;;
11805;SDS011;5960;42.602;23.482;2022-10-31T10:21:01;9.07;;;4.00;;
11805;SDS011;5960;42.602;23.482;2022-10-31T10:23:38;6.05;;;4.20;;
11805;SDS011;5960;42.602;23.482;2022-10-31T10:26:17;18.75;;;7.25;;
11805;SDS011;5960;42.602;23.482;2022-10-31T10:28:45;8.05;;;4.63;;
11805;SDS011;5960;42.602;23.482;2022-10-31T10:31:18;5.82;;;3.47;;
11805;SDS011;5960;42.602;23.482;2022-10-31T10:33:57;6.82;;;4.50;;
11805;SDS011;5960;42.602;23.482;2022-10-31T10:36:30;7.82;;;4.85;;
11805;SDS011;5960;42.602;23.482;2022-10-31T10:39:03;8.32;;;4.82;;
11805;SDS011;5960;42.602;23.482;2022-10-31T10:41:41;8.25;;;4.00;;
11805;SDS011;5960;42.602;23.482;2022-10-31T10:44:11;7.95;;;3.67;;
11805;SDS011;5960;42.602;23.482;2022-10-31T10:46:42;8.20;;;3.80;;
11805;SDS011;5960;42.602;23.482;2022-10-31T10:49:32;6.32;;;3.10;;
11805;SDS011;5960;42.602;23.482;2022-10-31T10:52:05;5.55;;;3.63;;
11805;SDS011;5960;42.602;23.482;2022-10-31T10:54:50;8.07;;;3.83;;
11805;SDS011;5960;42.602;23.482;2022-10-31T10:57:28;12.85;;;5.10;;
11805;SDS011;5960;42.602;23.482;2022-10-31T11:00:10;6.30;;;3.33;;
11805;SDS011;5960;42.602;23.482;2022-10-31T11:02:44;5.22;;;2.90;;
11805;SDS011;5960;42.602;23.482;2022-10-31T11:05:13;5.38;;;2.80;;
11805;SDS011;5960;42.602;23.482;2022-10-31T11:07:46;8.27;;;2.88;;
11805;SDS011;5960;42.602;23.482;2022-10-31T11:10:14;4.97;;;3.17;;
11805;SDS011;5960;42.602;23.482;2022-10-31T11:12:42;7.18;;;3.83;;
11805;SDS011;5960;42.602;23.482;2022-10-31T11:15:17;6.82;;;3.55;;
11805;SDS011;5960;42.602;23.482;2022-10-31T11:17:49;7.78;;;4.18;;
11805;SDS011;5960;42.602;23.482;2022-10-31T11:20:28;8.55;;;4.00;;
11805;SDS011;5960;42.602;23.482;2022-10-31T11:23:01;9.95;;;4.22;;
11805;SDS011;5960;42.602;23.482;2022-10-31T11:25:30;6.68;;;3.75;;
11805;SDS011;5960;42.602;23.482;2022-10-31T11:28:01;5.78;;;3.08;;
11805;SDS011;5960;42.602;23.482;2022-10-31T11:30:30;7.10;;;3.22;;
11805;SDS011;5960;42.602;23.482;2022-10-31T11:33:03;5.90;;;2.85;;
11805;SDS011;5960;42.602;23.482;2022-10-31T11:35:30;4.93;;;2.90;;
11805;SDS011;5960;42.602;23.482;2022-10-31T11:37:57;3.72;;;2.88;;
11805;SDS011;5960;42.602;23.482;2022-10-31T11:40:27;4.68;;;3.05;;
11805;SDS011;5960;42.602;23.482;2022-10-31T11:42:54;5.10;;;3.42;;
11805;SDS011;5960;42.602;23.482;2022-10-31T11:45:30;5.10;;;3.17;;
11805;SDS011;5960;42.602;23.482;2022-10-31T11:47:59;7.07;;;3.33;;
11805;SDS011;5960;42.602;23.482;2022-10-31T11:50:31;8.23;;;3.35;;
11805;SDS011;5960;42.602;23.482;2022-10-31T11:53:01;5.40;;;2.90;;
11805;SDS011;5960;42.602;23.482;2022-10-31T11:55:30;5.10;;;2.70;;
11805;SDS011;5960;42.602;23.482;2022-10-31T11:57:59;4.38;;;2.60;;
11805;SDS011;5960;42.602;23.482;2022-10-31T12:00:26;5.85;;;3.30;;
11805;SDS011;5960;42.602;23.482;2022-10-31T12:03:04;5.68;;;3.13;;
11805;SDS011;5960;42.602;23.482;2022-10-31T12:05:41;6.20;;;2.90;;
11805;SDS011;5960;42.602;23.482;2022-10-31T12:08:11;6.07;;;2.97;;
11805;SDS011;5960;42.602;23.482;2022-10-31T12:10:40;4.50;;;2.80;;
11805;SDS011;5960;42.602;23.482;2022-10-31T12:13:22;5.85;;;2.38;;
11805;SDS011;5960;42.602;23.482;2022-10-31T12:16:00;3.92;;;2.70;;
11805;SDS011;5960;42.602;23.482;2022-10-31T12:18:49;3.92;;;2.38;;
11805;SDS011;5960;42.602;23.482;2022-10-31T12:24:25;9.93;;;3.17;;
11805;SDS011;5960;42.602;23.482;2022-10-31T12:27:05;5.80;;;2.50;;
11805;SDS011;5960;42.602;23.482;2022-10-31T12:29:46;7.60;;;2.83;;
11805;SDS011;5960;42.602;23.482;2022-10-31T12:32:28;5.32;;;2.50;;
11805;SDS011;5960;42.602;23.482;2022-10-31T12:35:09;7.57;;;3.05;;
11805;SDS011;5960;42.602;23.482;2022-10-31T12:37:48;4.05;;;2.90;;
11805;SDS011;5960;42.602;23.482;2022-10-31T12:40:30;4.10;;;2.88;;
11805;SDS011;5960;42.602;23.482;2022-10-31T12:43:12;4.57;;;2.85;;
11805;SDS011;5960;42.602;23.482;2022-10-31T12:45:52;5.97;;;2.10;;
11805;SDS011;5960;42.602;23.482;2022-10-31T12:48:24;3.90;;;2.63;;
11805;SDS011;5960;42.602;23.482;2022-10-31T12:51:06;4.15;;;2.35;;
11805;SDS011;5960;42.602;23.482;2022-10-31T12:53:42;6.13;;;2.90;;
11805;SDS011;5960;42.602;23.482;2022-10-31T12:56:25;7.32;;;3.10;;
11805;SDS011;5960;42.602;23.482;2022-10-31T12:59:04;5.85;;;2.92;;
11805;SDS011;5960;42.602;23.482;2022-10-31T13:01:39;6.28;;;2.15;;
11805;SDS011;5960;42.602;23.482;2022-10-31T13:04:14;3.08;;;2.35;;
11805;SDS011;5960;42.602;23.482;2022-10-31T13:06:47;6.75;;;3.08;;
11805;SDS011;5960;42.602;23.482;2022-10-31T13:09:17;5.35;;;3.05;;
11805;SDS011;5960;42.602;23.482;2022-10-31T13:11:48;7.68;;;2.78;;
11805;SDS011;5960;42.602;23.482;2022-10-31T13:14:23;4.22;;;2.42;;
11805;SDS011;5960;42.602;23.482;2022-10-31T13:16:53;7.15;;;3.20;;
11805;SDS011;5960;42.602;23.482;2022-10-31T13:19:22;6.50;;;2.90;;
11805;SDS011;5960;42.602;23.482;2022-10-31T13:21:55;4.95;;;2.50;;
11805;SDS011;5960;42.602;23.482;2022-10-31T13:24:28;2.95;;;2.42;;
11805;SDS011;5960;42.602;23.482;2022-10-31T13:27:01;3.47;;;2.85;;
11805;SDS011;5960;42.602;23.482;2022-10-31T13:29:34;6.43;;;2.72;;
11805;SDS011;5960;42.602;23.482;2022-10-31T13:32:06;4.72;;;3.05;;
11805;SDS011;5960;42.602;23.482;2022-10-31T13:34:34;4.05;;;3.38;;
11805;SDS011;5960;42.602;23.482;2022-10-31T13:37:05;5.53;;;2.97;;
11805;SDS011;5960;42.602;23.482;2022-10-31T13:39:44;5.07;;;2.90;;
11805;SDS011;5960;42.602;23.482;2022-10-31T13:42:24;3.50;;;2.45;;
11805;SDS011;5960;42.602;23.482;2022-10-31T13:45:08;5.07;;;2.63;;
11805;SDS011;5960;42.602;23.482;2022-10-31T13:47:40;4.03;;;2.42;;
11805;SDS011;5960;42.602;23.482;2022-10-31T13:50:19;3.45;;;2.42;;
11805;SDS011;5960;42.602;23.482;2022-10-31T13:52:46;4.68;;;2.70;;
11805;SDS011;5960;42.602;23.482;2022-10-31T13:58:04;5.30;;;2.75;;
11805;SDS011;5960;42.602;23.482;2022-10-31T14:00:45;4.00;;;2.55;;
11805;SDS011;5960;42.602;23.482;2022-10-31T14:03:16;5.88;;;2.63;;
11805;SDS011;5960;42.602;23.482;2022-10-31T14:05:51;5.30;;;3.20;;
11805;SDS011;5960;42.602;23.482;2022-10-31T14:08:20;4.32;;;2.70;;
11805;SDS011;5960;42.602;23.482;2022-10-31T14:10:50;4.40;;;2.75;;
11805;SDS011;5960;42.602;23.482;2022-10-31T14:13:22;4.38;;;3.20;;
11805;SDS011;5960;42.602;23.482;2022-10-31T14:15:53;4.10;;;2.95;;
11805;SDS011;5960;42.602;23.482;2022-10-31T14:18:22;8.63;;;6.60;;
11805;SDS011;5960;42.602;23.482;2022-10-31T14:20:51;7.80;;;4.40;;
11805;SDS011;5960;42.602;23.482;2022-10-31T14:23:37;5.45;;;3.08;;
11805;SDS011;5960;42.602;23.482;2022-10-31T14:26:29;6.63;;;3.15;;
11805;SDS011;5960;42.602;23.482;2022-10-31T14:29:00;7.63;;;2.60;;
11805;SDS011;5960;42.602;23.482;2022-10-31T14:31:29;5.88;;;3.17;;
11805;SDS011;5960;42.602;23.482;2022-10-31T14:34:00;5.57;;;2.47;;
11805;SDS011;5960;42.602;23.482;2022-10-31T14:36:32;6.97;;;2.85;;
11805;SDS011;5960;42.602;23.482;2022-10-31T14:39:10;6.97;;;3.92;;
11805;SDS011;5960;42.602;23.482;2022-10-31T14:41:50;4.57;;;2.72;;
11805;SDS011;5960;42.602;23.482;2022-10-31T14:44:51;5.15;;;2.83;;
11805;SDS011;5960;42.602;23.482;2022-10-31T14:47:31;6.95;;;3.10;;
11805;SDS011;5960;42.602;23.482;2022-10-31T14:50:19;5.65;;;2.78;;
11805;SDS011;5960;42.602;23.482;2022-10-31T14:52:51;4.35;;;2.30;;
11805;SDS011;5960;42.602;23.482;2022-10-31T14:55:21;5.53;;;2.60;;
11805;SDS011;5960;42.602;23.482;2022-10-31T14:57:50;5.20;;;2.45;;
11805;SDS011;5960;42.602;23.482;2022-10-31T15:00:22;7.72;;;2.53;;
11805;SDS011;5960;42.602;23.482;2022-10-31T15:02:54;3.05;;;2.15;;
11805;SDS011;5960;42.602;23.482;2022-10-31T15:05:34;7.40;;;3.08;;
11805;SDS011;5960;42.602;23.482;2022-10-31T15:08:12;5.70;;;3.05;;
11805;SDS011;5960;42.602;23.482;2022-10-31T15:10:44;6.05;;;2.58;;
11805;SDS011;5960;42.602;23.482;2022-10-31T15:13:16;4.65;;;2.13;;
11805;SDS011;5960;42.602;23.482;2022-10-31T15:15:47;5.63;;;2.70;;